createdAt,value
2023-02-06T00:00:53.465Z,-0.96
2023-02-06T00:03:21.075Z,-1.03
2023-02-06T00:05:56.390Z,-1.04
2023-02-06T00:08:23.661Z,-1.07
2023-02-06T00:10:50.688Z,-1.04
2023-02-06T00:13:17.966Z,-1.02
2023-02-06T00:15:45.114Z,-1.01
2023-02-06T00:18:12.194Z,-1.00
2023-02-06T00:20:39.312Z,-0.98
2023-02-06T00:23:06.473Z,-0.97
2023-02-06T00:25:33.778Z,-0.94
2023-02-06T00:28:01.078Z,-0.92
2023-02-06T00:30:28.254Z,-0.87
2023-02-06T00:32:55.427Z,-0.83
2023-02-06T00:35:22.507Z,-0.80
2023-02-06T00:37:49.689Z,-0.73
2023-02-06T00:40:17.614Z,-0.68
2023-02-06T00:42:44.729Z,-0.60
2023-02-06T00:45:13.142Z,-0.54
2023-02-06T00:47:41.252Z,-0.47
2023-02-06T00:50:10.264Z,-0.39
2023-02-06T00:52:37.510Z,-0.33
2023-02-06T00:55:05.605Z,-0.25
2023-02-06T00:57:36.044Z,-0.23
2023-02-06T01:00:06.616Z,-0.20
2023-02-06T01:02:33.739Z,-0.18
2023-02-06T01:05:00.827Z,-0.19
2023-02-06T01:07:27.997Z,-0.20
2023-02-06T01:09:54.954Z,-0.22
2023-02-06T01:12:22.472Z,-0.25
2023-02-06T01:14:49.522Z,-0.30
2023-02-06T01:17:17.206Z,-0.33
2023-02-06T01:19:44.556Z,-0.42
2023-02-06T01:22:11.642Z,-0.54
2023-02-06T01:24:38.653Z,-0.64
2023-02-06T01:27:05.730Z,-0.78
2023-02-06T01:29:32.880Z,-0.89
2023-02-06T01:31:59.893Z,-0.99
2023-02-06T01:34:27.020Z,-1.09
2023-02-06T01:36:54.175Z,-1.16
2023-02-06T01:39:21.310Z,-1.22
2023-02-06T01:41:51.682Z,-1.23
2023-02-06T01:44:24.704Z,-1.22
2023-02-06T01:46:57.186Z,-1.22
2023-02-06T01:49:47.861Z,-1.15
2023-02-06T01:52:20.103Z,-1.06
2023-02-06T01:54:57.104Z,-0.98
2023-02-06T01:57:26.648Z,-0.88
2023-02-06T02:00:01.342Z,-0.81
2023-02-06T02:02:43.270Z,-0.68
2023-02-06T02:05:12.728Z,-0.58
2023-02-06T02:08:01.419Z,-0.50
2023-02-06T02:10:32.344Z,-0.41
2023-02-06T02:12:59.444Z,-0.32
2023-02-06T02:15:50.660Z,-0.23
2023-02-06T02:18:44.156Z,-0.17
2023-02-06T02:22:01.425Z,-0.11
2023-02-06T02:24:59.198Z,-0.06
2023-02-06T02:28:14.242Z,-0.04
2023-02-06T02:30:47.398Z,-0.06
2023-02-06T02:33:37.974Z,-0.04
2023-02-06T02:36:19.086Z,-0.04
2023-02-06T02:38:52.483Z,-0.07
2023-02-06T02:41:28.032Z,-0.07
2023-02-06T02:44:02.408Z,-0.08
2023-02-06T02:46:36.290Z,-0.08
2023-02-06T02:49:14.037Z,-0.10
2023-02-06T02:51:42.325Z,-0.08
2023-02-06T02:54:09.568Z,-0.06
2023-02-06T02:56:37.344Z,-0.09
2023-02-06T02:59:13.976Z,-0.09
2023-02-06T03:01:58.451Z,-0.08
2023-02-06T03:04:41.198Z,-0.08
2023-02-06T03:07:35.107Z,-0.13
2023-02-06T03:10:17.417Z,-0.18
2023-02-06T03:13:03.556Z,-0.19
2023-02-06T03:15:49.166Z,-0.23
2023-02-06T03:18:25.775Z,-0.31
2023-02-06T03:20:53.414Z,-0.35
2023-02-06T03:23:28.729Z,-0.38
2023-02-06T03:26:00.733Z,-0.40
2023-02-06T03:28:33.156Z,-0.39
2023-02-06T03:31:05.050Z,-0.36
2023-02-06T03:33:44.065Z,-0.41
2023-02-06T03:36:17.333Z,-0.40
2023-02-06T03:38:51.319Z,-0.41
2023-02-06T03:41:22.214Z,-0.41
2023-02-06T03:43:51.456Z,-0.44
2023-02-06T03:46:19.657Z,-0.50
2023-02-06T03:48:52.382Z,-0.59
2023-02-06T03:51:28.085Z,-0.71
2023-02-06T03:53:59.436Z,-0.87
2023-02-06T03:56:35.496Z,-1.04
2023-02-06T03:59:02.954Z,-1.18
2023-02-06T04:01:30.652Z,-1.35
2023-02-06T04:03:58.445Z,-1.50
2023-02-06T04:06:25.710Z,-1.65
2023-02-06T04:08:52.841Z,-1.80
2023-02-06T04:11:20.038Z,-1.90
2023-02-06T04:13:47.042Z,-1.99
2023-02-06T04:16:14.103Z,-2.08
2023-02-06T04:18:41.242Z,-2.16
2023-02-06T04:21:08.552Z,-2.24
2023-02-06T04:23:35.928Z,-2.33
2023-02-06T04:26:03.011Z,-2.42
2023-02-06T04:28:30.271Z,-2.54
2023-02-06T04:30:57.553Z,-2.60
2023-02-06T04:33:24.631Z,-2.65
2023-02-06T04:35:51.860Z,-2.69
2023-02-06T04:38:19.158Z,-2.75
2023-02-06T04:40:46.424Z,-2.83
2023-02-06T04:43:13.362Z,-2.90
2023-02-06T04:45:42.266Z,-2.94
2023-02-06T04:48:09.322Z,-2.97
2023-02-06T04:50:36.423Z,-3.01
2023-02-06T04:53:03.581Z,-3.08
2023-02-06T04:55:30.652Z,-3.12
2023-02-06T04:57:57.780Z,-3.17
2023-02-06T05:00:24.964Z,-3.23
2023-02-06T05:02:52.056Z,-3.26
2023-02-06T05:05:19.275Z,-3.31
2023-02-06T05:07:46.327Z,-3.31
2023-02-06T05:10:13.446Z,-3.32
2023-02-06T05:12:40.685Z,-3.30
2023-02-06T05:15:08.516Z,-3.33
2023-02-06T05:17:36.052Z,-3.34
2023-02-06T05:20:03.292Z,-3.35
2023-02-06T05:22:30.343Z,-3.32
2023-02-06T05:24:57.465Z,-3.32
2023-02-06T05:27:25.797Z,-3.32
2023-02-06T05:29:54.222Z,-3.31
2023-02-06T05:32:21.368Z,-3.37
2023-02-06T05:34:48.324Z,-3.38
2023-02-06T05:37:15.361Z,-3.39
2023-02-06T05:39:42.433Z,-3.43
2023-02-06T05:42:09.565Z,-3.46
2023-02-06T05:44:36.677Z,-3.47
2023-02-06T05:47:03.714Z,-3.47
2023-02-06T05:49:30.866Z,-3.50
2023-02-06T05:51:57.905Z,-3.55
2023-02-06T05:54:24.887Z,-3.58
2023-02-06T05:56:52.069Z,-3.59
2023-02-06T05:59:19.150Z,-3.62
2023-02-06T06:01:46.352Z,-3.65
2023-02-06T06:04:13.540Z,-3.67
2023-02-06T06:06:40.771Z,-3.69
2023-02-06T06:09:07.930Z,-3.73
2023-02-06T06:11:34.942Z,-3.73
2023-02-06T06:14:01.915Z,-3.78
2023-02-06T06:16:28.978Z,-3.82
2023-02-06T06:18:59.195Z,-3.86
2023-02-06T06:21:26.181Z,-3.88
2023-02-06T06:23:53.455Z,-3.90
2023-02-06T06:26:20.611Z,-3.91
2023-02-06T06:28:48.814Z,-3.93
2023-02-06T06:31:15.978Z,-3.94
2023-02-06T06:33:43.108Z,-3.97
2023-02-06T06:36:14.471Z,-3.97
2023-02-06T06:38:41.811Z,-3.97
2023-02-06T06:41:08.917Z,-3.99
2023-02-06T06:43:35.907Z,-3.90
2023-02-06T06:46:05.221Z,-3.67
2023-02-06T06:48:32.472Z,-3.39
2023-02-06T06:50:59.553Z,-3.00
2023-02-06T06:53:26.621Z,-2.47
2023-02-06T06:55:53.593Z,-1.91
2023-02-06T06:58:20.506Z,-1.29
2023-02-06T07:00:47.623Z,-0.59
2023-02-06T07:03:14.685Z,0.12
2023-02-06T07:05:41.760Z,0.85
2023-02-06T07:08:08.864Z,1.59
2023-02-06T07:10:35.947Z,2.30
2023-02-06T07:13:02.912Z,2.88
2023-02-06T07:15:29.907Z,3.23
2023-02-06T07:17:57.444Z,3.17
2023-02-06T07:20:24.559Z,3.23
2023-02-06T07:22:51.710Z,3.24
2023-02-06T07:25:20.706Z,3.49
2023-02-06T07:27:48.229Z,3.66
2023-02-06T07:30:15.398Z,3.96
2023-02-06T07:32:42.406Z,4.79
2023-02-06T07:35:09.461Z,5.55
2023-02-06T07:37:36.727Z,6.30
2023-02-06T07:40:04.836Z,7.05
2023-02-06T07:42:34.010Z,7.94
2023-02-06T07:45:09.714Z,8.90
2023-02-06T07:47:36.965Z,9.32
2023-02-06T07:50:04.768Z,9.65
2023-02-06T07:52:32.098Z,9.93
2023-02-06T07:54:59.030Z,10.37
2023-02-06T07:57:26.101Z,11.05
2023-02-06T07:59:53.312Z,11.26
2023-02-06T08:02:20.359Z,11.30
2023-02-06T08:04:47.409Z,11.67
2023-02-06T08:07:17.377Z,11.88
2023-02-06T08:09:44.402Z,12.18
2023-02-06T08:12:12.051Z,12.78
2023-02-06T08:14:39.443Z,13.33
2023-02-06T08:17:08.062Z,14.10
2023-02-06T08:19:35.152Z,14.75
2023-02-06T08:22:02.385Z,15.32
2023-02-06T08:24:29.443Z,15.97
2023-02-06T08:26:56.459Z,16.58
2023-02-06T08:29:25.002Z,16.89
2023-02-06T08:31:52.069Z,17.30
2023-02-06T08:34:19.353Z,18.09
2023-02-06T08:36:46.667Z,18.48
2023-02-06T08:39:15.385Z,19.09
2023-02-06T08:41:44.408Z,19.60
2023-02-06T08:44:14.773Z,19.62
2023-02-06T08:46:44.441Z,20.19
2023-02-06T08:49:17.829Z,20.12
2023-02-06T08:51:45.768Z,20.32
2023-02-06T08:54:16.135Z,20.31
2023-02-06T08:56:43.501Z,20.06
2023-02-06T08:59:11.724Z,20.30
2023-02-06T09:01:39.192Z,20.41
2023-02-06T09:04:09.458Z,20.59
2023-02-06T09:06:38.842Z,20.95
2023-02-06T09:09:08.020Z,21.11
2023-02-06T09:11:35.678Z,21.12
2023-02-06T09:14:05.379Z,21.32
2023-02-06T09:16:35.216Z,21.39
2023-02-06T09:19:08.732Z,21.54
2023-02-06T09:21:36.492Z,21.73
2023-02-06T09:24:16.250Z,21.61
2023-02-06T09:26:59.477Z,20.88
2023-02-06T09:29:35.862Z,20.29
2023-02-06T09:33:06.770Z,19.47
2023-02-06T09:35:39.444Z,18.60
2023-02-06T09:38:09.216Z,18.39
2023-02-06T09:40:38.945Z,18.22
2023-02-06T09:43:06.569Z,17.94
2023-02-06T09:45:34.385Z,17.43
2023-02-06T09:48:14.837Z,18.10
2023-02-06T09:50:48.017Z,17.93
2023-02-06T09:53:39.487Z,18.62
2023-02-06T09:56:26.952Z,18.74
2023-02-06T09:59:08.316Z,19.03
2023-02-06T10:01:49.775Z,18.28
2023-02-06T10:04:36.665Z,17.92
2023-02-06T10:07:09.503Z,17.74
2023-02-06T10:09:57.574Z,16.87
2023-02-06T10:12:43.988Z,16.32
2023-02-06T10:15:21.352Z,16.07
2023-02-06T10:22:14.302Z,14.69
2023-02-06T10:25:01.983Z,14.00
2023-02-06T10:27:30.836Z,13.17
2023-02-06T10:29:57.877Z,12.57
2023-02-06T10:32:46.126Z,11.98
2023-02-06T10:35:31.541Z,11.45
2023-02-06T10:38:45.507Z,10.65
2023-02-06T10:41:31.919Z,10.23
2023-02-06T10:44:24.458Z,9.77
2023-02-06T10:47:32.414Z,9.27
2023-02-06T10:50:18.784Z,8.88
2023-02-06T10:53:02.746Z,8.61
2023-02-06T10:56:15.878Z,8.36
2023-02-06T10:58:52.749Z,8.14
2023-02-06T11:01:31.486Z,8.00
2023-02-06T11:04:43.556Z,7.88
2023-02-06T11:07:28.843Z,7.83
2023-02-06T11:10:01.618Z,7.67
2023-02-06T11:12:40.214Z,7.44
2023-02-06T11:15:32.981Z,7.21
2023-02-06T11:18:07.425Z,7.12
2023-02-06T11:20:38.705Z,7.09
2023-02-06T11:23:26.206Z,7.05
2023-02-06T11:26:18.688Z,6.94
2023-02-06T11:29:08.940Z,6.90
2023-02-06T11:31:46.844Z,6.89
2023-02-06T11:34:51.046Z,6.74
2023-02-06T11:37:36.619Z,6.71
2023-02-06T11:40:18.510Z,6.69
2023-02-06T11:43:19.694Z,6.63
2023-02-06T11:45:48.765Z,6.46
2023-02-06T11:48:36.164Z,6.30
2023-02-06T11:51:04.483Z,6.16
2023-02-06T11:53:32.002Z,6.00
2023-02-06T11:56:06.965Z,5.73
2023-02-06T11:58:34.056Z,5.52
2023-02-06T12:01:09.739Z,5.32
2023-02-06T12:03:54.240Z,5.15
2023-02-06T12:06:37.301Z,4.96
2023-02-06T12:09:11.318Z,4.89
2023-02-06T12:11:52.400Z,4.72
2023-02-06T12:14:30.938Z,4.50
2023-02-06T12:17:01.613Z,4.41
2023-02-06T12:19:34.035Z,4.24
2023-02-06T12:22:16.398Z,4.13
2023-02-06T12:24:46.976Z,3.90
2023-02-06T12:27:39.064Z,3.78
2023-02-06T12:30:24.232Z,3.64
2023-02-06T12:33:12.378Z,3.54
2023-02-06T12:35:43.991Z,3.50
2023-02-06T12:38:42.214Z,3.46
2023-02-06T12:41:12.107Z,3.43
2023-02-06T12:43:41.847Z,3.42
2023-02-06T12:46:21.050Z,3.36
2023-02-06T12:48:55.001Z,3.33
2023-02-06T12:51:32.773Z,3.36
2023-02-06T12:54:12.121Z,3.31
2023-02-06T12:56:42.014Z,3.30
2023-02-06T12:59:34.852Z,3.30
2023-02-06T13:02:36.732Z,3.39
2023-02-06T13:05:17.238Z,3.39
2023-02-06T13:07:49.371Z,3.44
2023-02-06T13:10:25.007Z,3.44
2023-02-06T13:12:58.724Z,3.46
2023-02-06T13:15:29.435Z,3.43
2023-02-06T13:17:57.181Z,3.32
2023-02-06T13:20:26.145Z,3.27
2023-02-06T13:22:55.607Z,3.21
2023-02-06T13:25:31.763Z,3.16
2023-02-06T13:28:20.677Z,2.98
2023-02-06T13:30:59.148Z,2.82
2023-02-06T13:33:38.262Z,2.74
2023-02-06T13:36:12.739Z,2.67
2023-02-06T13:38:42.686Z,2.65
2023-02-06T13:41:15.715Z,2.57
2023-02-06T13:43:46.142Z,2.49
2023-02-06T13:46:16.424Z,2.43
2023-02-06T13:49:02.179Z,2.36
2023-02-06T13:52:08.324Z,2.30
2023-02-06T13:55:02.807Z,2.29
2023-02-06T13:58:26.858Z,2.25
2023-02-06T14:00:57.013Z,2.29
2023-02-06T14:03:31.530Z,2.35
2023-02-06T14:06:20.949Z,2.42
2023-02-06T14:09:06.611Z,2.49
2023-02-06T14:11:41.243Z,2.50
2023-02-06T14:14:15.097Z,2.48
2023-02-06T14:16:50.019Z,2.43
2023-02-06T14:19:47.078Z,2.32
2023-02-06T14:22:21.979Z,2.20
2023-02-06T14:25:12.229Z,2.11
2023-02-06T14:28:04.417Z,2.04
2023-02-06T14:30:44.373Z,2.04
2023-02-06T14:33:35.888Z,2.08
2023-02-06T14:36:33.947Z,2.11
2023-02-06T14:39:32.831Z,2.20
2023-02-06T14:42:00.504Z,2.21
2023-02-06T14:44:30.755Z,2.24
2023-02-06T14:46:58.491Z,2.27
2023-02-06T14:49:33.975Z,2.26
2023-02-06T14:52:03.250Z,2.22
2023-02-06T14:54:41.879Z,2.16
2023-02-06T14:57:21.248Z,2.12
2023-02-06T14:59:59.247Z,2.15
2023-02-06T15:02:30.677Z,2.20
2023-02-06T15:04:59.445Z,2.21
2023-02-06T15:07:35.761Z,2.29
2023-02-06T15:10:12.058Z,2.37
2023-02-06T15:12:39.217Z,2.40
2023-02-06T15:15:19.419Z,2.43
2023-02-06T15:18:16.782Z,2.50
2023-02-06T15:20:46.133Z,2.53
2023-02-06T15:23:45.521Z,2.54
2023-02-06T15:27:00.378Z,2.53
2023-02-06T15:29:28.070Z,2.54
2023-02-06T15:32:19.763Z,2.51
2023-02-06T15:34:47.084Z,2.47
2023-02-06T15:37:29.077Z,2.47
2023-02-06T15:40:13.947Z,2.42
2023-02-06T15:42:41.502Z,2.40
2023-02-06T15:45:18.987Z,2.41
2023-02-06T15:47:46.373Z,2.40
2023-02-06T15:50:20.243Z,2.41
2023-02-06T15:52:47.813Z,2.36
2023-02-06T15:55:34.720Z,2.35
2023-02-06T15:58:05.128Z,2.35
2023-02-06T16:00:37.918Z,2.30
2023-02-06T16:03:09.191Z,2.26
2023-02-06T16:05:41.479Z,2.23
2023-02-06T16:08:29.865Z,2.17
2023-02-06T16:11:35.797Z,2.12
2023-02-06T16:14:03.332Z,2.06
2023-02-06T16:16:30.628Z,2.00
2023-02-06T16:18:58.867Z,1.96
2023-02-06T16:21:29.658Z,1.91
2023-02-06T16:24:07.040Z,1.85
2023-02-06T16:26:49.691Z,1.80
2023-02-06T16:29:30.248Z,1.76
2023-02-06T16:32:12.013Z,1.71
2023-02-06T16:34:42.314Z,1.67
2023-02-06T16:37:22.726Z,1.65
2023-02-06T16:39:50.274Z,1.62
2023-02-06T16:42:34.562Z,1.60
2023-02-06T16:45:06.722Z,1.44
2023-02-06T16:47:33.749Z,1.27
2023-02-06T16:50:00.822Z,1.22
2023-02-06T16:52:33.527Z,1.16
2023-02-06T16:55:00.745Z,0.97
2023-02-06T16:57:32.713Z,0.94
2023-02-06T16:59:59.837Z,0.85
2023-02-06T17:02:28.022Z,0.69
2023-02-06T17:04:55.717Z,0.62
2023-02-06T17:07:26.047Z,0.49
2023-02-06T17:09:57.043Z,0.37
2023-02-06T17:12:24.688Z,0.31
2023-02-06T17:14:51.827Z,0.25
2023-02-06T17:17:23.474Z,0.22
2023-02-06T17:20:43.440Z,0.20
2023-02-06T17:22:57.135Z,0.17
2023-02-06T17:25:41.185Z,0.14
2023-02-06T17:28:27.926Z,0.09
2023-02-06T17:31:03.114Z,0.08
2023-02-06T17:33:41.433Z,0.08
2023-02-06T17:36:15.327Z,0.05
2023-02-06T17:38:42.545Z,0.03
2023-02-06T17:41:09.639Z,0.02
2023-02-06T17:43:38.172Z,0.02
2023-02-06T17:46:06.300Z,-0.01
2023-02-06T17:48:36.659Z,-0.04
2023-02-06T17:51:05.762Z,-0.06
2023-02-06T17:53:32.888Z,-0.04
2023-02-06T17:56:14.933Z,-0.01
2023-02-06T17:58:43.152Z,-0.01
2023-02-06T18:01:12.872Z,0.05
2023-02-06T18:03:40.967Z,0.03
2023-02-06T18:06:08.907Z,0.03
2023-02-06T18:08:36.054Z,0.03
2023-02-06T18:11:18.795Z,0.04
2023-02-06T18:13:48.421Z,0.04
2023-02-06T18:16:19.323Z,0.07
2023-02-06T18:18:47.945Z,0.06
2023-02-06T18:21:15.880Z,0.02
2023-02-06T18:23:42.951Z,-0.02
2023-02-06T18:26:13.348Z,-0.03
2023-02-06T18:28:40.659Z,-0.10
2023-02-06T18:31:27.904Z,-0.13
2023-02-06T18:33:56.388Z,-0.22
2023-02-06T18:36:24.228Z,-0.35
2023-02-06T18:38:51.506Z,-0.38
2023-02-06T18:41:37.138Z,-0.40
2023-02-06T18:44:06.985Z,-0.44
2023-02-06T18:46:35.209Z,-0.49
2023-02-06T18:49:02.590Z,-0.53
2023-02-06T18:51:31.003Z,-0.60
2023-02-06T18:53:59.595Z,-0.67
2023-02-06T18:56:26.883Z,-0.75
2023-02-06T18:58:53.957Z,-0.82
2023-02-06T19:01:23.802Z,-0.91
2023-02-06T19:03:52.811Z,-1.01
2023-02-06T19:06:23.541Z,-1.08
2023-02-06T19:08:50.822Z,-1.16
2023-02-06T19:11:17.877Z,-1.25
2023-02-06T19:13:45.084Z,-1.32
2023-02-06T19:16:18.792Z,-1.41
2023-02-06T19:18:48.657Z,-1.48
2023-02-06T19:21:18.945Z,-1.56
2023-02-06T19:23:48.501Z,-1.63
2023-02-06T19:26:17.501Z,-1.70
2023-02-06T19:28:45.050Z,-1.78
2023-02-06T19:31:14.244Z,-1.82
2023-02-06T19:33:41.985Z,-1.91
2023-02-06T19:36:11.921Z,-1.91
2023-02-06T19:38:39.386Z,-1.96
2023-02-06T19:41:15.440Z,-1.99
2023-02-06T19:43:42.846Z,-2.02
2023-02-06T19:46:12.397Z,-2.05
2023-02-06T19:48:43.423Z,-2.05
2023-02-06T19:51:13.620Z,-2.07
2023-02-06T19:53:47.493Z,-2.09
2023-02-06T19:56:40.152Z,-2.12
2023-02-06T19:59:14.114Z,-2.19
2023-02-06T20:01:44.303Z,-2.24
2023-02-06T20:04:11.552Z,-2.32
2023-02-06T20:06:38.645Z,-2.36
2023-02-06T20:09:06.306Z,-2.39
2023-02-06T20:11:34.172Z,-2.44
2023-02-06T20:14:01.321Z,-2.51
2023-02-06T20:16:32.150Z,-2.56
2023-02-06T20:19:05.225Z,-2.58
2023-02-06T20:21:37.391Z,-2.60
2023-02-06T20:24:09.205Z,-2.63
2023-02-06T20:26:39.289Z,-2.70
2023-02-06T20:29:09.188Z,-2.74
2023-02-06T20:31:36.902Z,-2.78
2023-02-06T20:34:04.177Z,-2.82
2023-02-06T20:36:31.361Z,-2.83
2023-02-06T20:39:00.585Z,-2.86
2023-02-06T20:41:32.302Z,-2.89
2023-02-06T20:44:01.282Z,-2.91
2023-02-06T20:46:30.655Z,-2.94
2023-02-06T20:49:01.374Z,-2.98
2023-02-06T20:51:29.609Z,-3.01
2023-02-06T20:53:57.026Z,-3.02
2023-02-06T20:56:24.774Z,-3.04
2023-02-06T20:58:52.213Z,-3.08
2023-02-06T21:01:19.248Z,-3.08
2023-02-06T21:03:47.294Z,-3.13
2023-02-06T21:06:14.964Z,-3.17
2023-02-06T21:08:42.474Z,-3.21
2023-02-06T21:11:09.684Z,-3.21
2023-02-06T21:13:36.785Z,-3.23
2023-02-06T21:16:04.067Z,-3.20
2023-02-06T21:18:31.754Z,-3.18
2023-02-06T21:21:10.025Z,-3.19
2023-02-06T21:23:39.118Z,-3.20
2023-02-06T21:26:07.675Z,-3.21
2023-02-06T21:28:35.988Z,-3.26
2023-02-06T21:31:10.057Z,-3.30
2023-02-06T21:33:37.748Z,-3.34
2023-02-06T21:36:07.278Z,-3.39
2023-02-06T21:38:35.813Z,-3.42
2023-02-06T21:41:18.149Z,-3.47
2023-02-06T21:43:45.877Z,-3.49
2023-02-06T21:46:13.664Z,-3.52
2023-02-06T21:48:41.660Z,-3.58
2023-02-06T21:51:09.779Z,-3.60
2023-02-06T21:53:36.898Z,-3.61
2023-02-06T21:56:09.239Z,-3.65
2023-02-06T21:58:37.034Z,-3.68
2023-02-06T22:01:08.761Z,-3.69
2023-02-06T22:03:36.216Z,-3.73
2023-02-06T22:06:09.801Z,-3.75
2023-02-06T22:08:37.603Z,-3.78
2023-02-06T22:11:31.650Z,-3.82
2023-02-06T22:14:12.218Z,-3.83
2023-02-06T22:16:39.499Z,-3.88
2023-02-06T22:19:07.617Z,-3.91
2023-02-06T22:21:35.797Z,-3.93
2023-02-06T22:24:06.781Z,-3.94
2023-02-06T22:26:38.962Z,-3.94
2023-02-06T22:29:08.134Z,-3.96
2023-02-06T22:31:36.332Z,-3.99
2023-02-06T22:34:03.615Z,-3.99
2023-02-06T22:36:32.872Z,-4.01
2023-02-06T22:39:04.016Z,-4.05
2023-02-06T22:41:31.198Z,-4.07
2023-02-06T22:43:58.295Z,-4.12
2023-02-06T22:46:37.596Z,-4.14
2023-02-06T22:49:06.047Z,-4.13
2023-02-06T22:51:33.665Z,-4.13
2023-02-06T22:54:01.429Z,-4.17
2023-02-06T22:56:31.988Z,-4.17
2023-02-06T22:59:17.124Z,-4.21
2023-02-06T23:01:47.441Z,-4.21
2023-02-06T23:04:22.959Z,-4.22
2023-02-06T23:06:51.214Z,-4.25
2023-02-06T23:09:24.545Z,-4.27
2023-02-06T23:11:52.832Z,-4.27
2023-02-06T23:14:20.626Z,-4.29
2023-02-06T23:16:48.431Z,-4.29
2023-02-06T23:19:16.179Z,-4.32
2023-02-06T23:21:44.812Z,-4.35
2023-02-06T23:24:13.700Z,-4.34
2023-02-06T23:26:47.554Z,-4.36
2023-02-06T23:29:17.461Z,-4.39
2023-02-06T23:31:46.728Z,-4.40
2023-02-06T23:34:14.636Z,-4.41
2023-02-06T23:36:42.006Z,-4.45
2023-02-06T23:39:09.147Z,-4.49
2023-02-06T23:41:36.148Z,-4.49
2023-02-06T23:44:07.940Z,-4.52
2023-02-06T23:46:37.284Z,-4.54
2023-02-06T23:49:04.916Z,-4.60
2023-02-06T23:51:33.180Z,-4.62
2023-02-06T23:54:00.603Z,-4.65
2023-02-06T23:56:29.845Z,-4.67
2023-02-06T23:58:59.218Z,-4.70
